Time;durP1;ratioP1;P1;durP2;ratioP2;P2;SDS_P1;SDS_P2;PMS_P1;PMS_P2;Temp;Humidity;BMP_temperature;BMP_pressure;BME280_temperature;BME280_humidity;BME280_pressure;Samples;Min_cycle;Max_cycle;Signal;HPM_P1;HPM_P2
2021/12/16 00:02:12;;;;;;;7.27;6.30;;;;;;;6.34;71.85;100901.13;5069042;23;20233;-80
2021/12/16 00:05:22;;;;;;;8.03;6.37;;;;;;;6.56;70.36;100914.66;5003813;23;20236;-80
2021/12/16 00:08:18;;;;;;;7.40;6.70;;;;;;;6.66;70.31;100924.34;5044255;23;20254;-81
2021/12/16 00:32:23;;;;;;;7.80;6.10;;;;;;;6.58;70.53;100914.47;5228897;23;20201;-80
2021/12/16 00:35:13;;;;;;;7.87;6.90;;;;;;;6.61;69.99;100917.69;5042541;23;20548;-80
2021/12/16 00:38:25;;;;;;;7.27;6.30;;;;;;;6.63;69.70;100922.81;5036351;28;20195;-81
2021/12/16 00:41:32;;;;;;;6.43;5.50;;;;;;;6.63;69.65;100921.00;5036053;28;20238;-80
2021/12/16 00:45:33;;;;;;;6.67;5.67;;;;;;;6.62;69.76;100926.50;5134651;23;20226;-81
2021/12/16 00:56:43;;;;;;;5.70;5.10;;;;;;;6.60;68.99;100924.00;5071724;23;20220;-81
2021/12/16 00:59:43;;;;;;;6.20;4.70;;;;;;;6.60;68.49;100920.50;5057830;23;20231;-83
2021/12/16 01:07:43;;;;;;;6.13;4.37;;;;;;;6.70;68.38;100933.66;5019824;23;20276;-82
2021/12/16 01:36:02;;;;;;;4.07;3.60;;;;;;;6.66;67.31;100895.03;5059261;23;20507;-82
2021/12/16 01:49:28;;;;;;;3.80;3.27;;;;;;;6.72;67.41;100900.53;5042622;28;20206;-81
2021/12/16 01:56:49;;;;;;;3.53;3.17;;;;;;;6.50;67.47;100854.06;5066565;23;20194;-81
2021/12/16 01:59:41;;;;;;;4.03;3.17;;;;;;;6.81;67.36;100886.22;5042225;23;20218;-81
2021/12/16 02:03:05;;;;;;;3.43;3.13;;;;;;;6.74;67.74;100892.38;5057343;23;20248;-82
2021/12/16 02:07:00;;;;;;;3.50;3.20;;;;;;;6.89;67.12;100877.44;5070632;23;20233;-81
2021/12/16 02:10:20;;;;;;;3.23;2.90;;;;;;;6.79;67.58;100868.75;5087765;23;20224;-80
2021/12/16 02:35:31;;;;;;;3.37;2.60;;;;;;;6.73;67.85;100875.56;5059773;28;20244;-81
2021/12/16 02:38:30;;;;;;;2.50;2.27;;;;;;;6.88;67.02;100863.28;5059647;28;20228;-81
2021/12/16 02:42:12;;;;;;;2.97;2.67;;;;;;;6.81;67.04;100853.47;5016062;23;20234;-81
2021/12/16 02:49:26;;;;;;;3.00;2.70;;;;;;;6.72;67.14;100835.81;5074475;23;20227;-81
2021/12/16 02:52:47;;;;;;;3.40;3.07;;;;;;;6.70;67.33;100853.75;5054257;23;20190;-81
2021/12/16 02:55:37;;;;;;;4.03;2.93;;;;;;;6.72;67.25;100825.16;5021769;28;20245;-81
2021/12/16 03:03:22;;;;;;;3.33;3.00;;;;;;;6.78;67.85;100867.09;5035519;23;20245;-81
2021/12/16 03:06:38;;;;;;;3.43;2.77;;;;;;;6.74;68.07;100858.59;5052648;23;20235;-81
2021/12/16 03:10:07;;;;;;;3.47;3.17;;;;;;;6.76;67.76;100861.94;5034397;23;20295;-81
2021/12/16 03:13:36;;;;;;;4.33;3.73;;;;;;;6.79;67.98;100863.44;5029748;23;20223;-81
2021/12/16 03:17:31;;;;;;;4.00;3.47;;;;;;;6.79;68.18;100866.94;5039927;23;20235;-81
2021/12/16 03:21:47;;;;;;;3.90;3.43;;;;;;;6.64;68.65;100864.06;5056343;23;20226;-81
2021/12/16 03:25:29;;;;;;;3.70;3.40;;;;;;;6.64;68.45;100849.94;5005033;23;20230;-81
2021/12/16 03:29:18;;;;;;;4.40;3.50;;;;;;;6.65;68.63;100872.91;5125684;23;20286;-81
2021/12/16 03:36:14;;;;;;;4.40;4.00;;;;;;;6.78;68.63;100867.09;5040323;23;20274;-81
2021/12/16 03:39:19;;;;;;;4.30;3.90;;;;;;;6.66;68.79;100865.75;5052911;23;20206;-81
2021/12/16 03:43:18;;;;;;;4.50;4.10;;;;;;;6.56;68.88;100857.91;5045772;23;20231;-81
2021/12/16 03:46:48;;;;;;;5.37;4.17;;;;;;;6.68;68.81;100869.06;5046563;23;20190;-81
2021/12/16 03:50:36;;;;;;;6.13;4.00;;;;;;;6.62;68.89;100875.91;3201051;23;20222;-81
2021/12/16 03:53:17;;;;;;;4.23;3.83;;;;;;;6.63;69.40;100862.41;5025317;23;20239;-81
2021/12/16 03:59:47;;;;;;;4.23;3.83;;;;;;;6.51;70.24;100862.88;4967238;23;20209;-81
2021/12/16 04:03:01;;;;;;;4.40;4.00;;;;;;;6.57;69.19;100868.41;5038738;28;20198;-81
2021/12/16 04:06:06;;;;;;;4.10;3.50;;;;;;;6.50;69.70;100870.03;5161431;23;20230;-81
2021/12/16 04:10:14;;;;;;;4.50;4.10;;;;;;;6.58;69.15;100859.41;5019966;23;20216;-81
2021/12/16 04:12:59;;;;;;;4.67;4.20;;;;;;;6.55;69.11;100858.91;5032222;23;20290;-81
2021/12/16 04:16:57;;;;;;;4.73;4.23;;;;;;;6.48;69.49;100864.06;5073072;23;20237;-81
2021/12/16 04:20:25;;;;;;;5.43;4.30;;;;;;;6.39;69.71;100843.72;5077688;28;20201;-81
2021/12/16 04:23:23;;;;;;;5.03;4.30;;;;;;;6.37;69.83;100850.22;5065912;28;20221;-81
2021/12/16 04:27:15;;;;;;;5.13;4.60;;;;;;;6.23;69.77;100826.88;5087644;23;20256;-81
2021/12/16 04:30:46;;;;;;;4.50;4.10;;;;;;;6.46;69.18;100857.22;5063922;23;20260;-82
2021/12/16 04:34:18;;;;;;;5.07;4.57;;;;;;;6.51;69.40;100854.91;5064677;23;20198;-81
2021/12/16 04:37:32;;;;;;;4.70;4.20;;;;;;;6.34;69.60;100846.06;5079303;23;20238;-81
2021/12/16 04:41:28;;;;;;;5.33;4.83;;;;;;;6.38;70.28;100873.19;5062550;23;20249;-82
2021/12/16 04:45:02;;;;;;;5.43;4.93;;;;;;;6.42;70.03;100869.19;5077394;23;20589;-81
2021/12/16 04:48:43;;;;;;;5.20;4.70;;;;;;;6.45;70.23;100871.53;5083306;23;20224;-81
2021/12/16 04:51:55;;;;;;;5.20;4.70;;;;;;;6.33;70.43;100876.34;5085574;23;20221;-81
2021/12/16 04:54:55;;;;;;;5.13;4.63;;;;;;;6.48;69.94;100869.38;5070105;28;20335;-81
2021/12/16 05:01:52;;;;;;;5.60;5.10;;;;;;;6.35;70.57;100876.97;5035723;23;20224;-81
2021/12/16 05:08:27;;;;;;;5.80;5.20;;;;;;;6.24;70.83;100860.50;5041157;23;20257;-81
2021/12/16 05:12:00;;;;;;;5.80;5.20;;;;;;;6.35;70.75;100882.31;5045072;23;20221;-81
2021/12/16 05:15:37;;;;;;;6.13;5.53;;;;;;;6.41;70.59;100883.50;5070566;23;20221;-81
2021/12/16 05:19:10;;;;;;;6.20;5.60;;;;;;;6.52;70.11;100883.19;5087006;23;20233;-81
2021/12/16 05:26:55;;;;;;;6.80;6.17;;;;;;;6.50;69.86;100890.50;5039190;23;20293;31
2021/12/16 05:31:03;;;;;;;6.80;6.10;;;;;;;6.38;71.08;100897.97;5016538;28;20238;-81
2021/12/16 05:34:48;;;;;;;6.13;5.53;;;;;;;6.52;70.75;100900.00;5018581;28;20263;-82
2021/12/16 05:37:59;;;;;;;6.83;6.13;;;;;;;6.45;70.10;100898.16;5081086;23;20210;-81
2021/12/16 05:41:27;;;;;;;6.77;6.17;;;;;;;6.43;70.67;100911.63;5074915;23;20209;-80
2021/12/16 05:44:23;;;;;;;7.33;6.73;;;;;;;6.51;70.15;100909.00;5036402;28;20219;-81
2021/12/16 05:47:36;;;;;;;7.53;6.83;;;;;;;6.31;70.72;100901.44;5072954;23;20209;-81
2021/12/16 05:50:29;;;;;;;7.03;6.33;;;;;;;6.38;70.29;100918.44;5077613;28;20209;-81
2021/12/16 05:53:30;;;;;;;7.30;6.60;;;;;;;6.36;70.73;100913.25;5085158;23;20217;-80
2021/12/16 05:56:32;;;;;;;7.70;6.90;;;;;;;6.41;71.79;100918.94;5040531;23;20213;-81
2021/12/16 05:59:51;;;;;;;8.10;6.93;;;;;;;6.48;71.64;100924.47;5040006;28;20202;-81
2021/12/16 06:03:40;;;;;;;7.77;7.00;;;;;;;6.31;70.92;100915.56;5127612;23;20234;-83
2021/12/16 06:06:51;;;;;;;5.97;5.43;;;;;;;6.42;71.52;100925.94;5191395;23;20214;-81
2021/12/16 06:10:29;;;;;;;7.70;6.70;;;;;;;6.34;71.44;100931.25;3514838;23;44007938;-81
2021/12/16 06:13:34;;;;;;;7.53;6.60;;;;;;;6.35;71.88;100938.22;5152681;23;20225;-81
2021/12/16 06:30:32;;;;;;;6.90;6.20;;;;;;;6.19;71.79;100965.59;5072186;23;20256;-81
2021/12/16 06:33:52;;;;;;;6.60;6.00;;;;;;;6.18;71.78;100945.31;5069815;23;20244;-81
2021/12/16 06:36:59;;;;;;;5.27;4.27;;;;;;;6.13;71.29;100963.56;663547;23;21382;-81
2021/12/16 06:40:15;;;;;;;4.03;3.60;;;;;;;6.15;71.22;100966.91;5102353;23;20399;-81
2021/12/16 06:49:18;;;;;;;4.43;4.03;;;;;;;5.99;72.09;100958.84;4996418;28;20245;-84
2021/12/16 06:52:51;;;;;;;4.87;4.17;;;;;;;5.95;71.66;100952.16;5043635;23;20214;-84
2021/12/16 06:55:49;;;;;;;3.90;3.50;;;;;;;6.05;71.75;100983.97;5041412;28;20205;-81
2021/12/16 06:58:42;;;;;;;3.90;3.50;;;;;;;5.97;72.27;100984.75;5049272;23;20274;-81
2021/12/16 07:02:30;;;;;;;3.97;3.60;;;;;;;6.02;72.17;100997.63;5060781;28;20221;-81
2021/12/16 07:05:43;;;;;;;3.97;3.60;;;;;;;5.98;72.33;101010.38;5050453;28;20237;-80
2021/12/16 07:09:13;;;;;;;3.83;3.43;;;;;;;6.05;72.12;100992.81;5051596;23;20246;-81
2021/12/16 07:11:47;;;;;;;4.60;4.17;;;;;;;6.03;72.93;100999.25;5056671;23;20202;-80
2021/12/16 07:14:38;;;;;;;4.43;4.00;;;;;;;6.05;72.66;101007.94;5056703;23;20245;-82
2021/12/16 07:17:40;;;;;;;4.43;4.03;;;;;;;6.02;72.78;101002.94;5058381;23;20230;-81
2021/12/16 07:21:23;;;;;;;4.57;3.83;;;;;;;6.06;73.41;101009.59;5089606;23;20246;-80
2021/12/16 07:24:28;;;;;;;5.10;4.23;;;;;;;6.02;73.14;101011.72;5040755;23;20256;-81
2021/12/16 07:27:43;;;;;;;5.03;4.00;;;;;;;6.10;73.21;101010.97;5150318;23;20325;-81
2021/12/16 07:30:44;;;;;;;4.67;4.00;;;;;;;6.04;72.98;101012.41;5137798;23;20238;-80
2021/12/16 07:33:47;;;;;;;4.70;4.30;;;;;;;6.03;73.21;101007.25;5062099;23;20233;-81
2021/12/16 07:40:15;;;;;;;4.97;3.80;;;;;;;6.32;71.95;101017.56;5003442;28;20219;-81
2021/12/16 07:46:33;;;;;;;4.67;4.17;;;;;;;6.38;71.86;101006.28;5150765;22;20241;-81
2021/12/16 07:50:09;;;;;;;5.00;4.50;;;;;;;6.49;71.36;101013.97;5039585;23;20218;-81
2021/12/16 07:53:38;;;;;;;4.63;4.20;;;;;;;6.50;72.01;101013.81;5026294;23;20223;-83
2021/12/16 07:57:02;;;;;;;5.17;4.33;;;;;;;6.57;71.79;100998.88;5034844;23;20230;-83
2021/12/16 08:00:37;;;;;;;5.00;4.50;;;;;;;6.61;71.45;101007.38;5023132;28;20198;-82
2021/12/16 08:03:58;;;;;;;4.93;4.27;;;;;;;6.75;71.20;101017.41;5041403;23;20226;-81
2021/12/16 08:10:46;;;;;;;4.17;3.77;;;;;;;6.60;70.86;101001.22;5004138;23;20230;-82
2021/12/16 08:13:47;;;;;;;4.33;3.93;;;;;;;6.59;71.28;101009.34;5045888;23;20225;-83
2021/12/16 08:17:13;;;;;;;4.67;3.90;;;;;;;6.68;70.95;101011.06;5007593;23;20229;-82
2021/12/16 08:20:23;;;;;;;4.30;3.90;;;;;;;6.85;71.22;101009.28;5053881;23;20223;-83
2021/12/16 08:23:30;;;;;;;4.20;3.80;;;;;;;6.79;71.02;100992.13;5077036;23;20213;-82
2021/12/16 08:26:31;;;;;;;5.07;4.20;;;;;;;7.05;70.46;101011.50;5024095;23;20238;-83
2021/12/16 08:29:54;;;;;;;4.43;3.80;;;;;;;7.11;69.79;101011.84;5298569;23;20210;-83
2021/12/16 08:33:11;;;;;;;4.20;3.50;;;;;;;7.14;69.94;101016.88;5125334;23;20210;-82
2021/12/16 08:39:48;;;;;;;3.30;2.83;;;;;;;7.15;70.27;101015.84;4976305;28;20676;-79
2021/12/16 08:43:18;;;;;;;3.17;2.87;;;;;;;7.40;70.27;101021.06;5082932;23;21388;-81
2021/12/16 08:46:48;;;;;;;2.57;2.23;;;;;;;7.43;68.85;101004.72;5032175;23;20207;-82
2021/12/16 08:50:18;;;;;;;2.93;2.47;;;;;;;7.56;68.95;101025.56;5023163;23;20242;-81
2021/12/16 08:53:32;;;;;;;2.63;2.33;;;;;;;7.45;70.00;101025.91;5063700;23;20214;-81
2021/12/16 08:57:00;;;;;;;2.33;2.13;;;;;;;7.61;69.49;101038.38;5126622;23;20234;-81
2021/12/16 09:00:21;;;;;;;3.30;1.80;;;;;;;7.63;68.48;101039.91;5068369;23;20234;-81
2021/12/16 09:03:56;;;;;;;1.87;1.73;;;;;;;7.69;68.56;101033.91;5050087;23;20225;-81
2021/12/16 09:07:08;;;;;;;1.90;1.60;;;;;;;7.72;68.80;101028.22;5121748;23;20226;-81
2021/12/16 09:10:14;;;;;;;2.00;1.70;;;;;;;7.78;68.59;101030.25;5038236;23;20225;-81
2021/12/16 09:13:12;;;;;;;2.70;1.70;;;;;;;8.06;68.19;101060.06;5082849;23;20313;-81
2021/12/16 09:16:25;;;;;;;1.37;1.10;;;;;;;8.00;66.47;101031.38;5023246;23;20230;-81
2021/12/16 09:19:30;;;;;;;1.30;1.20;;;;;;;7.76;67.10;101037.56;5043617;23;20233;-81
2021/12/16 09:22:53;;;;;;;1.53;1.17;;;;;;;7.98;66.77;101039.53;5060288;23;20222;-81
2021/12/16 09:26:20;;;;;;;2.40;0.90;;;;;;;7.80;68.00;101040.72;5017152;23;20318;-81
2021/12/16 09:29:53;;;;;;;0.87;0.80;;;;;;;7.80;66.99;101041.56;5141873;23;20225;-81
2021/12/16 09:32:45;;;;;;;1.90;1.20;;;;;;;7.82;67.55;101028.06;5026457;23;20239;-81
2021/12/16 09:36:03;;;;;;;1.10;0.87;;;;;;;7.92;67.28;101029.56;5048103;23;20234;-82
2021/12/16 09:39:41;;;;;;;1.47;0.90;;;;;;;7.95;67.64;101025.72;5138481;23;20221;-81
2021/12/16 09:42:44;;;;;;;1.83;1.00;;;;;;;8.03;66.77;101022.19;5099475;23;20260;-81
2021/12/16 09:45:58;;;;;;;1.73;0.90;;;;;;;7.96;67.09;101003.38;5060220;23;20266;-81
2021/12/16 09:52:49;;;;;;;1.17;0.90;;;;;;;7.97;67.39;100992.53;5120741;23;20230;-81
2021/12/16 09:56:02;;;;;;;0.90;0.80;;;;;;;8.09;66.37;100993.00;5039671;23;20218;-81
2021/12/16 09:58:49;;;;;;;2.90;1.00;;;;;;;8.11;66.47;101000.84;5020712;28;20203;-81
2021/12/16 10:01:39;;;;;;;1.00;0.90;;;;;;;8.06;66.49;100988.00;5061835;23;20242;-80
2021/12/16 10:05:27;;;;;;;1.30;1.00;;;;;;;7.93;67.14;100969.03;5006301;28;20290;-81
2021/12/16 10:07:58;;;;;;;1.20;1.10;;;;;;;8.11;66.78;100993.66;5024727;23;20210;-81
2021/12/16 10:17:49;;;;;;;2.33;1.00;;;;;;;8.23;65.62;100988.78;5143298;22;20298;-80
2021/12/16 10:21:15;;;;;;;1.57;1.20;;;;;;;8.47;64.62;100975.38;5030219;23;20234;-81
2021/12/16 10:24:44;;;;;;;2.20;0.93;;;;;;;8.51;63.85;100967.84;5060838;23;20242;-81
2021/12/16 10:27:59;;;;;;;1.93;1.20;;;;;;;8.24;64.44;100951.25;5046505;28;20218;-81
2021/12/16 10:31:26;;;;;;;1.40;1.13;;;;;;;8.32;64.00;100956.56;5045031;23;20228;-81
2021/12/16 10:35:04;;;;;;;1.83;1.10;;;;;;;8.28;64.26;100957.91;5006848;23;20226;-80
2021/12/16 10:38:36;;;;;;;1.00;0.80;;;;;;;8.27;64.75;100958.06;5017191;28;20211;-81
2021/12/16 10:41:58;;;;;;;1.00;0.80;;;;;;;8.27;64.07;100952.72;5022434;23;20218;31
2021/12/16 10:45:01;;;;;;;0.97;0.87;;;;;;;8.20;64.20;100954.44;5012478;23;20234;-81
2021/12/16 10:48:33;;;;;;;1.17;1.07;;;;;;;8.12;64.21;100946.47;5134455;23;20222;-81
2021/12/16 10:51:54;;;;;;;0.80;0.80;;;;;;;8.02;64.26;100945.81;4973672;29;20235;-81
2021/12/16 10:55:02;;;;;;;1.07;0.70;;;;;;;7.84;64.84;100938.00;5138173;23;20242;-81
2021/12/16 10:58:10;;;;;;;1.10;1.00;;;;;;;7.87;64.43;100937.69;5224135;23;20233;-80
2021/12/16 11:01:09;;;;;;;1.17;1.00;;;;;;;7.92;64.44;100959.34;5064332;23;20317;-82
2021/12/16 11:04:40;;;;;;;1.50;1.10;;;;;;;7.76;64.11;100928.19;5054783;23;20206;-82
2021/12/16 11:07:38;;;;;;;1.90;0.90;;;;;;;7.76;64.41;100948.69;5075348;23;20236;-81
2021/12/16 11:10:37;;;;;;;1.03;0.93;;;;;;;7.79;64.46;100945.72;5137994;23;20301;-80
2021/12/16 11:13:43;;;;;;;1.70;1.00;;;;;;;7.68;65.38;100946.03;5016286;28;20235;-81
2021/12/16 11:21:22;;;;;;;1.30;1.20;;;;;;;7.51;65.36;100950.56;4970696;23;20292;-80
2021/12/16 11:24:26;;;;;;;0.80;0.80;;;;;;;7.70;65.20;100942.19;5064076;23;20222;-81
2021/12/16 11:28:09;;;;;;;1.30;1.20;;;;;;;7.77;65.77;100945.88;5179470;23;20243;-80
2021/12/16 11:30:53;;;;;;;1.43;1.10;;;;;;;7.74;64.78;100924.88;5154601;23;20225;-80
2021/12/16 11:34:09;;;;;;;1.57;1.20;;;;;;;7.88;65.02;100928.66;5101562;23;20265;-80
2021/12/16 11:36:57;;;;;;;1.03;0.97;;;;;;;8.03;65.15;100937.63;5166098;23;20197;-80
2021/12/16 11:40:24;;;;;;;1.93;1.17;;;;;;;8.00;64.53;100915.78;5069754;23;20229;-81
2021/12/16 11:43:17;;;;;;;1.33;1.23;;;;;;;8.03;65.18;100932.28;5061080;28;20170;-81
2021/12/16 11:45:59;;;;;;;1.13;1.03;;;;;;;7.94;65.22;100933.31;5056155;28;20229;-81
2021/12/16 11:49:27;;;;;;;1.70;1.30;;;;;;;7.94;65.49;100930.63;5078399;23;20206;-81
2021/12/16 11:52:37;;;;;;;1.40;1.23;;;;;;;7.86;65.87;100931.50;5088052;23;20213;-80
2021/12/16 11:56:01;;;;;;;1.80;1.63;;;;;;;8.07;65.29;100938.94;5055120;23;20222;-80
2021/12/16 11:59:41;;;;;;;1.57;1.47;;;;;;;8.26;64.32;100935.88;5063582;23;20222;-80
2021/12/16 12:03:30;;;;;;;2.73;1.77;;;;;;;8.51;63.54;100931.28;5033598;23;20301;-82
2021/12/16 12:06:40;;;;;;;2.30;1.93;;;;;;;8.66;62.86;100916.19;5066609;23;20222;-79
2021/12/16 12:10:32;;;;;;;3.33;2.33;;;;;;;8.66;62.75;100918.03;4992327;23;20243;-80
2021/12/16 12:13:56;;;;;;;2.87;2.40;;;;;;;8.74;62.77;100920.63;5132609;23;20222;-81
2021/12/16 12:17:34;;;;;;;3.10;2.80;;;;;;;8.72;63.03;100899.47;5148366;23;20902;-80
2021/12/16 12:21:01;;;;;;;3.70;2.77;;;;;;;8.83;62.62;100909.72;5033010;23;20223;-81
2021/12/16 12:24:00;;;;;;;3.40;3.10;;;;;;;8.89;62.66;100915.38;5018172;28;20227;-80
2021/12/16 12:27:48;;;;;;;3.03;2.73;;;;;;;8.74;61.83;100875.22;5202588;23;20238;-79
2021/12/16 12:31:01;;;;;;;3.47;3.17;;;;;;;8.71;61.87;100894.28;5037955;23;20223;-82
2021/12/16 12:33:50;;;;;;;4.90;3.30;;;;;;;8.80;61.88;100901.25;5012207;28;20227;-81
2021/12/16 12:37:15;;;;;;;3.53;3.23;;;;;;;8.84;61.92;100918.56;5103911;23;20246;-82
2021/12/16 12:40:36;;;;;;;4.17;3.20;;;;;;;8.63;62.65;100915.72;5016758;28;20222;-82
2021/12/16 12:44:07;;;;;;;3.40;3.00;;;;;;;8.52;62.39;100892.91;5031735;23;20231;-81
2021/12/16 12:47:34;;;;;;;5.03;4.53;;;;;;;8.75;62.22;100911.63;4983620;23;20254;-81
2021/12/16 12:50:42;;;;;;;3.73;3.43;;;;;;;8.69;62.74;100926.50;5223782;23;20261;-81
2021/12/16 12:53:55;;;;;;;3.70;3.40;;;;;;;8.35;63.84;100923.38;5067164;23;20329;-82
2021/12/16 12:57:36;;;;;;;4.07;3.57;;;;;;;8.46;63.56;100920.28;5006281;28;20193;-81
2021/12/16 13:00:24;;;;;;;3.93;3.33;;;;;;;8.44;63.98;100926.81;5068521;23;20230;-80
2021/12/16 13:03:30;;;;;;;4.93;3.70;;;;;;;8.25;64.50;100915.53;5061487;23;20214;-81
2021/12/16 13:06:30;;;;;;;4.00;3.50;;;;;;;8.27;64.74;100926.84;5062169;23;20238;-81
2021/12/16 13:09:28;;;;;;;4.73;3.70;;;;;;;7.98;65.30;100911.44;5033936;22;20207;-81
2021/12/16 13:12:48;;;;;;;4.27;3.77;;;;;;;8.01;65.56;100925.47;5015595;23;20281;-80
2021/12/16 13:15:52;;;;;;;5.23;3.83;;;;;;;7.89;66.03;100923.16;5105344;23;20569;-81
2021/12/16 13:28:43;;;;;;;5.13;4.17;;;;;;;7.74;66.29;100927.53;5052045;23;20225;-81
2021/12/16 13:32:09;;;;;;;5.60;4.03;;;;;;;7.70;66.56;100950.19;5048770;28;20170;-81
2021/12/16 13:35:37;;;;;;;5.83;4.47;;;;;;;7.49;67.29;100942.72;5049278;23;20300;-81
2021/12/16 13:38:50;;;;;;;4.87;4.13;;;;;;;7.55;67.58;100961.72;5048711;28;20237;-82
2021/12/16 13:42:15;;;;;;;5.60;4.67;;;;;;;7.51;68.11;100966.56;5041469;23;20226;-81
2021/12/16 13:45:06;;;;;;;5.87;4.90;;;;;;;7.42;68.49;100964.88;5018239;23;20250;-81
2021/12/16 14:04:12;;;;;;;6.30;5.50;;;;;;;7.28;69.86;100952.25;5044421;23;20226;-80
2021/12/16 14:07:02;;;;;;;6.17;5.57;;;;;;;7.20;69.71;100954.88;5034581;28;20219;-81
2021/12/16 14:10:05;;;;;;;5.80;5.20;;;;;;;7.14;69.97;100944.91;5042730;23;20826;-81
2021/12/16 14:23:05;;;;;;;5.90;5.20;;;;;;;7.12;69.81;100968.22;5022022;23;20227;-81
2021/12/16 14:33:51;;;;;;;7.20;5.50;;;;;;;7.12;70.29;100958.38;5012741;23;20235;-81
2021/12/16 14:35:36;;;;;;;5.73;5.10;;;;;;;7.11;70.56;100962.03;4970044;28;20207;-80
2021/12/16 14:47:53;;;;;;;5.93;5.40;;;;;;;7.02;69.95;100947.88;5114163;23;20203;-80
2021/12/16 14:50:29;;;;;;;5.30;4.73;;;;;;;6.94;70.78;100952.38;5031591;23;20223;-81
2021/12/16 14:53:18;;;;;;;6.30;5.23;;;;;;;6.99;70.43;100947.38;5011205;23;20232;-81
2021/12/16 14:55:50;;;;;;;5.90;5.33;;;;;;;7.07;70.33;100958.88;5025882;23;20533;-80
2021/12/16 14:58:44;;;;;;;5.80;5.20;;;;;;;7.07;69.60;100953.56;5048990;23;20230;-80
2021/12/16 15:01:22;;;;;;;6.00;4.80;;;;;;;7.15;69.98;100955.38;5022376;23;20238;-80
2021/12/16 15:04:37;;;;;;;6.00;5.23;;;;;;;7.06;69.88;100957.22;5025950;23;20223;-82
2021/12/16 15:07:58;;;;;;;4.80;4.40;;;;;;;7.12;69.71;100955.72;5054896;28;20201;-81
2021/12/16 15:11:01;;;;;;;5.67;4.80;;;;;;;7.17;69.36;100963.22;5139422;23;20226;-80
2021/12/16 15:14:20;;;;;;;6.13;4.83;;;;;;;7.22;69.36;100961.72;5064385;23;20225;-81
2021/12/16 15:17:34;;;;;;;4.93;4.43;;;;;;;7.14;69.90;100961.69;5018522;28;20247;-81
2021/12/16 15:44:32;;;;;;;6.37;4.00;;;;;;;7.09;70.17;100994.19;5039699;23;20241;-79
2021/12/16 15:51:08;;;;;;;4.80;4.10;;;;;;;7.06;70.19;100991.00;5115239;23;20249;-80
2021/12/16 15:57:30;;;;;;;3.73;3.20;;;;;;;7.08;70.07;100957.91;5078762;23;20224;-80
2021/12/16 16:00:29;;;;;;;4.03;3.63;;;;;;;7.17;69.39;100997.88;5114527;23;20214;-81
2021/12/16 16:03:41;;;;;;;4.07;3.67;;;;;;;7.25;69.50;100998.72;5060903;23;20225;-81
2021/12/16 16:06:32;;;;;;;4.47;3.60;;;;;;;7.14;70.17;100982.22;5057316;23;20220;-80
2021/12/16 16:10:27;;;;;;;3.90;3.50;;;;;;;7.21;70.19;101000.03;5004543;28;20222;-81
2021/12/16 16:13:41;;;;;;;4.33;3.50;;;;;;;7.26;70.32;101016.38;5145634;23;20659;-80
2021/12/16 16:16:49;;;;;;;3.90;3.33;;;;;;;7.20;70.56;101017.03;5073278;28;20225;-81
2021/12/16 16:20:01;;;;;;;3.57;3.20;;;;;;;7.29;70.36;101028.53;5067752;23;20202;-81
2021/12/16 16:23:20;;;;;;;3.73;3.33;;;;;;;7.17;71.25;101028.03;5072345;23;20233;-81
2021/12/16 16:26:58;;;;;;;3.60;3.30;;;;;;;6.98;71.80;101020.31;5087635;23;20223;-81
2021/12/16 16:29:59;;;;;;;4.20;2.57;;;;;;;6.99;71.00;101012.16;5049748;23;20220;-81
2021/12/16 16:33:21;;;;;;;3.47;2.73;;;;;;;7.18;71.72;101028.88;5071355;23;20221;-81
2021/12/16 16:36:22;;;;;;;2.77;2.47;;;;;;;6.98;71.76;101012.31;5067699;23;20217;-80
2021/12/16 16:40:00;;;;;;;2.80;2.30;;;;;;;7.14;71.60;101030.19;5075112;28;20265;-81
2021/12/16 16:42:53;;;;;;;2.57;2.33;;;;;;;7.10;72.08;101013.66;5047705;28;20261;-80
2021/12/16 16:45:31;;;;;;;3.00;2.23;;;;;;;6.98;71.94;100996.34;5226687;23;20236;-81
2021/12/16 16:52:06;;;;;;;2.10;1.90;;;;;;;6.93;72.73;100990.66;5032747;23;20237;-81
2021/12/16 16:54:52;;;;;;;1.87;1.70;;;;;;;7.15;72.31;101008.69;5033388;28;20218;-81
2021/12/16 16:57:59;;;;;;;1.70;1.60;;;;;;;7.21;71.99;100999.22;5014938;28;20194;-81
2021/12/16 17:00:35;;;;;;;2.00;1.90;;;;;;;7.12;72.03;101009.03;5038132;23;20262;-81
2021/12/16 17:03:45;;;;;;;1.60;1.50;;;;;;;7.15;72.77;101000.69;4665900;23;10790806;-81
2021/12/16 17:06:39;;;;;;;1.70;1.30;;;;;;;7.17;72.35;100998.72;5034474;28;20234;-81
2021/12/16 17:10:05;;;;;;;1.60;1.50;;;;;;;7.22;72.46;101001.72;5047771;23;20238;-80
2021/12/16 17:20:37;;;;;;;1.13;1.03;;;;;;;7.33;71.21;100992.53;4982772;23;20232;-81
2021/12/16 17:23:36;;;;;;;1.00;0.90;;;;;;;7.08;72.30;100981.88;5047152;23;20225;-80
2021/12/16 17:27:03;;;;;;;1.50;1.07;;;;;;;7.32;71.75;101010.41;5030251;28;20215;-81
2021/12/16 17:30:37;;;;;;;1.20;1.10;;;;;;;7.25;71.96;101005.88;4988556;23;20216;-82
2021/12/16 17:33:34;;;;;;;0.87;0.87;;;;;;;7.35;71.81;100998.56;5045117;23;20231;-81
2021/12/16 17:37:47;;;;;;;1.03;0.90;;;;;;;7.36;72.10;101006.41;5012673;23;20231;-80
2021/12/16 17:40:40;;;;;;;0.70;0.60;;;;;;;7.23;72.63;100991.88;4989547;28;20235;-81
2021/12/16 17:44:03;;;;;;;0.90;0.80;;;;;;;7.15;72.96;100970.53;5047136;23;20225;-80
2021/12/16 17:47:17;;;;;;;0.80;0.80;;;;;;;7.38;72.32;100987.53;5041910;28;20229;-81
2021/12/16 17:50:30;;;;;;;0.60;0.60;;;;;;;7.25;72.30;100982.72;5140915;23;20257;-81
2021/12/16 17:54:03;;;;;;;0.80;0.80;;;;;;;7.22;72.89;100990.22;5052598;23;20234;-81
2021/12/16 17:57:47;;;;;;;0.50;0.50;;;;;;;7.17;72.67;100965.88;5051724;23;20261;-81
2021/12/16 18:01:20;;;;;;;0.47;0.47;;;;;;;7.20;73.27;100994.88;5032690;28;20273;-81
2021/12/16 18:05:01;;;;;;;0.30;0.30;;;;;;;7.36;72.29;100994.91;5046173;23;20265;-83
2021/12/16 18:07:47;;;;;;;2.00;0.60;;;;;;;7.26;72.22;100988.88;5065195;23;20228;-83
2021/12/16 18:10:49;;;;;;;0.50;0.47;;;;;;;7.35;72.66;101009.22;5030982;23;20230;-81
2021/12/16 18:13:56;;;;;;;0.60;0.47;;;;;;;7.31;72.72;101003.41;5034980;28;20226;-81
2021/12/16 18:17:04;;;;;;;0.93;0.50;;;;;;;7.28;72.35;101003.69;5059657;23;20264;-81
2021/12/16 18:20:06;;;;;;;0.50;0.50;;;;;;;7.20;72.50;100995.69;5073080;23;20260;-82
2021/12/16 18:23:19;;;;;;;0.30;0.30;;;;;;;7.38;73.07;101009.72;5066474;23;20221;-81
2021/12/16 18:26:16;;;;;;;0.30;0.30;;;;;;;7.27;73.13;101003.88;5051765;28;20229;-81
2021/12/16 18:28:58;;;;;;;0.40;0.40;;;;;;;7.29;72.87;101018.72;5070906;23;20214;-81
2021/12/16 18:31:52;;;;;;;0.40;0.40;;;;;;;7.27;73.03;101003.88;5035802;28;20213;-81
2021/12/16 18:34:37;;;;;;;0.40;0.40;;;;;;;7.36;72.92;101009.06;5035722;28;20199;-81
2021/12/16 18:37:30;;;;;;;0.70;0.40;;;;;;;7.28;73.21;100993.03;5058175;23;20254;-81
2021/12/16 18:40:38;;;;;;;0.93;0.40;;;;;;;7.36;73.22;100997.56;5040549;28;20214;-83
2021/12/16 18:43:41;;;;;;;0.33;0.33;;;;;;;7.18;73.42;100980.88;5060567;23;20261;-81
2021/12/16 18:46:36;;;;;;;0.60;0.50;;;;;;;7.30;73.74;101004.38;5032539;28;20235;-81
2021/12/16 18:49:17;;;;;;;0.50;0.50;;;;;;;7.32;73.53;101007.72;5025652;23;20210;-81
2021/12/16 18:55:50;;;;;;;1.33;0.60;;;;;;;7.25;73.81;100995.22;5075395;28;20205;-83
2021/12/16 18:58:28;;;;;;;1.37;0.60;;;;;;;7.40;73.83;101007.72;5081781;23;20222;-82
2021/12/16 19:01:41;;;;;;;0.90;0.80;;;;;;;7.27;73.66;101006.56;5072238;23;20245;-83
2021/12/16 19:04:17;;;;;;;0.83;0.60;;;;;;;7.31;73.69;100998.06;5052698;23;20688;-81
2021/12/16 19:07:03;;;;;;;0.63;0.57;;;;;;;7.33;73.73;100995.22;5034146;28;20234;-82
2021/12/16 19:09:33;;;;;;;1.00;0.60;;;;;;;7.32;73.23;101002.41;5073847;23;20722;-80
2021/12/16 19:12:12;;;;;;;0.70;0.70;;;;;;;7.31;73.28;101022.06;5019695;23;20246;-81
2021/12/16 19:15:17;;;;;;;0.90;0.60;;;;;;;7.36;73.48;101029.56;5052468;23;20221;-80
2021/12/16 19:18:12;;;;;;;0.83;0.80;;;;;;;7.07;74.58;100998.03;5037791;23;20262;-84
2021/12/16 19:21:07;;;;;;;0.80;0.80;;;;;;;7.21;74.30;101018.69;5074452;23;20264;-81
2021/12/16 19:23:55;;;;;;;0.93;0.70;;;;;;;7.23;73.70;101021.22;5052783;28;20222;-82
2021/12/16 19:26:44;;;;;;;1.27;1.00;;;;;;;7.32;74.44;101026.41;5049573;23;20226;-82
2021/12/16 19:29:38;;;;;;;0.90;0.83;;;;;;;7.30;74.21;101025.72;5058017;28;20205;-82
2021/12/16 19:35:39;;;;;;;1.00;0.80;;;;;;;7.16;75.11;101037.00;5029953;23;20246;-82
2021/12/16 19:38:20;;;;;;;1.87;0.87;;;;;;;7.22;74.97;101030.19;5016028;28;20257;-82
2021/12/16 19:40:55;;;;;;;0.90;0.90;;;;;;;7.11;74.55;101027.84;5015068;28;20289;-82